ANF weather

Andrés Sabella Gálvez International Airport
Antofagasta, Antofagasta Region, Chile

Public forecast

Using degrees Celsius for public forecast. Weather courtesy of forecast.io.

METAR (pilot weather report)

Retrieved 2019/05/24 10:00 UTC (25 minutes ago):

SCFA 241000Z 34010KT 9999 OVC012 13/09 Q1014 NOSIG

TAF (pilot weather forecast)

Retrieved 2019/05/24 06:00 UTC (4 hours ago):

TAF COR SCFA 240429Z 2406/2506 06004KT 9999 OVC012 TN11/2410Z TX18/2417Z TEMPO 2409/2412 36004KT 5000 BR SCT006 OVC010 BECMG 2414/2416 35007KT BKN015 BECMG 2418/2420 20012KT FEW020 BECMG 2500/2502 03004KT BKN010